Otter Rock, Oregon
Current Conditions -  °F | °C
As of 8:35 PM on Saturday 25 Oct 2014 (Local Time) from KONP Reporting Station
Scattered Clouds Scattered Clouds  
Wind Chill: 55°   Ceiling: Unl
Heat Index: 55°   Visibility: 7mi
Dew Point: 52°   Wind: 14mph
Humidity: 88%   Direction: 220°SW
Pressure: 29.9"   Gusts: 20mph
Location:  44.75°N, 124.06°W
Report Text: KONP 260335Z AUTO 22012G17KT 7SM SCT036 SCT045 SCT060 13/11 A2990 RMK AO2
Loading
Personal Weather Stations






























Interactive Weather Map
Tropical Storm Tracking
New forecast layout! Learn more

10-Day Weather Forecast

Advertisements
Track Severe Weather on mobile